Aérodrome :
LOGIN :

S'inscrire | Disclaimer

   EN    FR    IT 

 










Légende :    VFR   VFR Marginal   IFR   IFR Intensif   IFR Très Intensif
Visi : 
Plafond : 
>= 8 km
>= 3000ft
5 à 8 km
1000 à 3000 ft
1500m à 5 km
500 à 1000 ft
800 à 1500m
200 à 500 ft
< 800m
< 200 ft
Symboles :   Orages  Brouillard  Fortes neiges  Fortes précipitations  Vent > 20 kt
SIGMETs :   Divers  Orages  Givrage  Turbulence  Onde Orograph.  Cendres Volcan.






- Altitude de l'aérodrome : 289 ft


LFYR - Romorantin Pruniers

DERNIER METAR :
  • 141100Z AUTO 06011G23KT 360V100 CAVOK 12/M04 Q1028 NOSIG

METARs EXPIRÉS :
  • 141030Z AUTO 05011G22KT 010V080 CAVOK 11/M05 Q1028 NOSIG
  • 141000Z AUTO 08014KT CAVOK 11/M05 Q1029 TEMPO 05015G25KT
  • 140930Z AUTO 07015KT 030V100 CAVOK 10/M04 Q1029 TEMPO 05015G25KT
  • 140900Z AUTO 05009KT 010V090 CAVOK 10/M03 Q1029 TEMPO 05015G25KT
  • 140830Z AUTO 04006KT 340V090 CAVOK 09/M03 Q1029 TEMPO 05015G25KT

TAF TAF LFYR
Valide du 14 à 09h jusqu'au 15 à 09h UTC


140800Z 1409/1509 05005KT CAVOK
PROB40
TEMPO 1409/1418 05015G25KT



MET'MAP, la Météo Aéronautique d'un coup d'oeil ! - Copyright ORBIFLY Décembre 2007 - Disclaimer

ORBIFLY MET'MAP TEAM :

Programmation & Développement : Alexandra Zaïnal
Sur une idée originale de : Baudouin d'Aumeries
Assistance à la programmation : Marc-Olivier Méhu
Soutien technique & logistique : Manuel Goepfert

Contact : metmap@orbifly.com




SOURCES & CREDITS :

   NOAA